Time;durP1;ratioP1;P1;durP2;ratioP2;P2;SDS_P1;SDS_P2;PMS_P1;PMS_P2;Temp;Humidity;BMP_temperature;BMP_pressure;BME280_temperature;BME280_humidity;BME280_pressure;Samples;Min_cycle;Max_cycle;Signal;HPM_P1;HPM_P2
2022/07/07 00:00:43;;;;;;;3.90;1.80;;;16.70;1.00;;;;;;7371002;19;20011;-60
2022/07/07 00:03:13;;;;;;;4.70;1.98;;;16.60;1.00;;;;;;7364795;19;20040;-60
2022/07/07 00:05:45;;;;;;;2.97;1.60;;;16.50;1.00;;;;;;7366616;19;20018;-60
2022/07/07 00:08:16;;;;;;;7.32;1.60;;;16.60;1.00;;;;;;7388008;19;20011;-60
2022/07/07 00:10:46;;;;;;;7.35;2.33;;;16.50;1.00;;;;;;7366751;19;20007;-60
2022/07/07 00:13:15;;;;;;;4.78;1.98;;;16.50;1.00;;;;;;7358420;19;20077;-61
2022/07/07 00:15:46;;;;;;;4.35;1.95;;;16.50;1.00;;;;;;7364383;19;20430;-61
2022/07/07 00:18:16;;;;;;;5.72;2.10;;;16.50;1.00;;;;;;7370278;19;20018;-62
2022/07/07 00:20:49;;;;;;;4.60;2.20;;;16.50;1.00;;;;;;7369842;19;20018;-59
2022/07/07 00:23:19;;;;;;;3.97;2.15;;;16.40;1.00;;;;;;7386082;19;20092;-59
2022/07/07 00:25:49;;;;;;;5.22;2.00;;;16.40;1.00;;;;;;7364414;19;20006;-60
2022/07/07 00:28:19;;;;;;;3.38;2.00;;;16.40;1.00;;;;;;7369976;19;20027;-60
2022/07/07 00:30:49;;;;;;;3.75;2.15;;;16.40;1.00;;;;;;7370008;19;20014;-59
2022/07/07 00:33:19;;;;;;;4.35;1.98;;;16.40;1.00;;;;;;7364026;19;20006;-59
2022/07/07 00:35:51;;;;;;;8.57;2.25;;;16.40;1.00;;;;;;7365603;19;20719;-60
2022/07/07 00:38:21;;;;;;;6.13;1.90;;;16.50;1.00;;;;;;7391758;19;20014;-59
2022/07/07 00:40:52;;;;;;;6.20;2.10;;;16.50;1.00;;;;;;7369955;19;20470;-59
2022/07/07 00:43:23;;;;;;;3.13;1.90;;;16.50;1.00;;;;;;7363994;19;20021;-59
2022/07/07 00:45:54;;;;;;;6.00;2.10;;;16.50;1.00;;;;;;7362472;19;20142;-59
2022/07/07 00:48:24;;;;;;;6.72;2.30;;;16.60;1.00;;;;;;7370079;19;20006;-59
2022/07/07 00:50:57;;;;;;;4.47;2.30;;;16.60;1.00;;;;;;7368219;19;20489;-59
2022/07/07 00:53:27;;;;;;;4.32;1.90;;;16.60;1.00;;;;;;7385945;19;20082;-60
2022/07/07 00:55:58;;;;;;;6.38;2.30;;;16.50;1.00;;;;;;7362353;19;20017;-59
2022/07/07 00:58:28;;;;;;;4.38;2.10;;;16.60;1.00;;;;;;7368768;19;20014;-61
2022/07/07 01:00:58;;;;;;;4.18;2.17;;;16.50;1.00;;;;;;7369016;19;20014;-61
2022/07/07 01:03:28;;;;;;;4.50;1.75;;;16.50;1.00;;;;;;7362216;19;20367;-61
2022/07/07 01:06:02;;;;;;;3.58;1.98;;;16.60;1.00;;;;;;7363021;19;20474;-61
2022/07/07 01:08:32;;;;;;;3.67;2.05;;;16.50;1.00;;;;;;7368727;19;20034;-62
2022/07/07 01:11:02;;;;;;;4.97;1.95;;;16.50;1.00;;;;;;7388215;19;20086;-61
2022/07/07 01:13:32;;;;;;;9.07;2.10;;;16.50;1.00;;;;;;7362383;19;20441;-61
2022/07/07 01:16:02;;;;;;;5.80;2.15;;;16.40;1.00;;;;;;7361070;19;20182;-61
2022/07/07 01:18:32;;;;;;;5.13;2.30;;;16.40;1.00;;;;;;7370936;19;20010;-61
2022/07/07 01:21:05;;;;;;;3.20;2.30;;;16.40;1.00;;;;;;7370700;19;20351;-61
2022/07/07 01:23:38;;;;;;;3.10;1.93;;;16.40;1.00;;;;;;7370684;19;20018;-61
2022/07/07 01:26:08;;;;;;;4.25;2.53;;;16.50;1.00;;;;;;7391520;19;20018;-60
2022/07/07 01:28:38;;;;;;;3.50;2.22;;;16.40;1.00;;;;;;7370247;19;20010;-60
2022/07/07 01:31:08;;;;;;;5.30;2.28;;;16.40;1.00;;;;;;7369192;19;20069;-60
2022/07/07 01:33:38;;;;;;;3.08;2.30;;;16.40;1.00;;;;;;7369884;19;20018;-60
2022/07/07 01:36:08;;;;;;;3.45;2.20;;;16.40;1.00;;;;;;7370331;19;20002;-60
2022/07/07 01:38:41;;;;;;;4.82;2.38;;;16.30;1.00;;;;;;7370760;19;20077;-60
2022/07/07 01:41:11;;;;;;;9.18;2.40;;;16.40;1.00;;;;;;7392076;19;20423;-60
2022/07/07 01:43:40;;;;;;;3.75;2.40;;;16.40;1.00;;;;;;7369267;19;20014;-60
2022/07/07 01:46:11;;;;;;;3.85;2.13;;;16.40;1.00;;;;;;7368525;19;20007;-60
2022/07/07 01:48:40;;;;;;;7.57;2.08;;;16.50;1.00;;;;;;7370741;19;20010;-60
2022/07/07 01:51:10;;;;;;;2.85;2.10;;;16.50;1.00;;;;;;7370408;19;20355;-60
2022/07/07 01:53:43;;;;;;;4.47;1.70;;;16.50;1.00;;;;;;7370456;19;20007;-61
2022/07/07 01:56:13;;;;;;;5.10;1.80;;;16.50;1.00;;;;;;7390442;19;20018;-60
2022/07/07 01:58:42;;;;;;;7.57;1.70;;;16.50;1.00;;;;;;7369470;19;20014;-60
2022/07/07 02:01:13;;;;;;;2.00;1.77;;;16.50;1.00;;;;;;7368719;19;20021;-60
2022/07/07 02:03:42;;;;;;;4.32;2.03;;;16.50;1.00;;;;;;7368914;19;20003;-60
2022/07/07 02:06:13;;;;;;;2.85;1.60;;;16.50;1.00;;;;;;7369107;19;20525;-60
2022/07/07 02:08:45;;;;;;;3.70;1.85;;;16.50;1.00;;;;;;7370860;19;20081;-61
2022/07/07 02:11:15;;;;;;;4.00;2.28;;;16.40;1.00;;;;;;7390776;19;20015;-60
2022/07/07 02:13:47;;;;;;;4.30;1.88;;;16.40;1.00;;;;;;7369052;19;20010;-60
2022/07/07 02:16:19;;;;;;;2.60;1.63;;;16.40;1.00;;;;;;7367969;19;20027;-60
2022/07/07 02:18:51;;;;;;;4.63;1.75;;;16.60;1.00;;;;;;7370139;19;20007;-60
2022/07/07 02:21:22;;;;;;;7.85;2.28;;;16.40;1.00;;;;;;7369974;19;20029;-60
2022/07/07 02:23:56;;;;;;;2.95;2.22;;;16.50;1.00;;;;;;7369796;19;20019;-60
2022/07/07 02:26:26;;;;;;;;;;;16.50;1.00;;;;;;7390204;19;20021;-60
2022/07/07 02:28:57;;;;;;;4.63;1.60;;;16.40;1.00;;;;;;7369990;19;19903;-60
2022/07/07 02:31:27;;;;;;;2.97;1.77;;;16.40;1.00;;;;;;7368805;19;20014;-60
2022/07/07 02:33:57;;;;;;;3.67;1.77;;;16.40;1.00;;;;;;7368436;19;20019;-60
2022/07/07 02:36:27;;;;;;;5.47;2.17;;;16.40;1.00;;;;;;7367814;19;20014;-60
2022/07/07 02:38:59;;;;;;;3.03;1.67;;;16.40;1.00;;;;;;7369137;19;20152;-60
2022/07/07 02:41:29;;;;;;;5.18;1.70;;;16.40;1.00;;;;;;7387831;19;20018;-62
2022/07/07 02:43:59;;;;;;;4.22;1.90;;;16.40;1.00;;;;;;7389902;19;20027;-60
2022/07/07 02:46:29;;;;;;;3.47;1.58;;;16.40;1.00;;;;;;7366717;19;20070;-60
2022/07/07 02:48:59;;;;;;;2.97;1.88;;;16.30;1.00;;;;;;7368938;19;20498;-60
2022/07/07 02:51:29;;;;;;;3.30;1.67;;;16.20;1.00;;;;;;7368367;19;20020;-60
2022/07/07 02:54:02;;;;;;;4.65;1.98;;;16.10;1.00;;;;;;7368289;19;20024;-60
2022/07/07 02:56:32;;;;;;;2.72;1.90;;;16.20;1.00;;;;;;7365636;19;20106;-61
2022/07/07 02:59:02;;;;;;;3.67;1.90;;;16.20;1.00;;;;;;7389804;19;20022;-60
2022/07/07 03:01:32;;;;;;;3.17;1.55;;;16.20;1.00;;;;;;7367784;19;20007;-60
2022/07/07 03:04:02;;;;;;;4.03;1.70;;;16.10;1.00;;;;;;7367881;19;20015;-60
2022/07/07 03:06:31;;;;;;;3.92;1.90;;;16.20;1.00;;;;;;7367300;19;20037;-60
2022/07/07 03:09:04;;;;;;;2.55;1.90;;;16.10;1.00;;;;;;7368419;19;20110;-61
2022/07/07 03:11:34;;;;;;;4.60;1.73;;;16.10;1.00;;;;;;7367427;19;20027;-62
2022/07/07 03:14:04;;;;;;;2.53;1.67;;;16.10;1.00;;;;;;7389192;19;20035;-59
2022/07/07 03:16:33;;;;;;;3.22;1.60;;;16.10;1.00;;;;;;7368546;19;20023;-60
2022/07/07 03:19:03;;;;;;;4.60;1.92;;;16.20;1.00;;;;;;7375662;19;20011;-60
2022/07/07 03:21:33;;;;;;;2.97;1.70;;;16.30;1.00;;;;;;7375925;19;20527;-59
2022/07/07 03:24:06;;;;;;;2.35;1.67;;;16.30;1.00;;;;;;7374633;19;20020;-60
2022/07/07 03:26:36;;;;;;;4.05;2.20;;;16.30;1.00;;;;;;7373277;19;20014;-60
2022/07/07 03:29:06;;;;;;;6.43;1.80;;;16.30;1.00;;;;;;7396420;19;20425;-60
2022/07/07 03:31:36;;;;;;;3.33;1.73;;;16.20;1.00;;;;;;7374160;19;20011;-60
2022/07/07 03:34:06;;;;;;;4.85;2.00;;;16.20;1.00;;;;;;7374120;19;20015;-60
2022/07/07 03:36:36;;;;;;;4.05;1.92;;;16.10;1.00;;;;;;7374476;19;20019;-60
2022/07/07 03:39:08;;;;;;;6.00;2.05;;;15.90;1.00;;;;;;7374238;19;20039;-59
2022/07/07 03:41:38;;;;;;;5.53;2.60;;;15.90;1.00;;;;;;7375373;19;20006;-60
2022/07/07 03:44:08;;;;;;;7.07;2.47;;;16.10;1.00;;;;;;7395990;19;20018;-59
2022/07/07 03:46:38;;;;;;;4.70;2.35;;;16.10;1.00;;;;;;7372073;19;20010;-60
2022/07/07 03:49:08;;;;;;;4.45;2.40;;;16.00;1.00;;;;;;7374181;19;20033;-60
2022/07/07 03:51:38;;;;;;;5.57;2.20;;;16.10;1.00;;;;;;7373796;19;20003;-60
2022/07/07 03:54:10;;;;;;;6.45;2.15;;;16.20;1.00;;;;;;7372952;19;20027;-59
2022/07/07 03:56:40;;;;;;;4.63;2.08;;;16.20;1.00;;;;;;7371862;19;20010;-60
2022/07/07 03:59:10;;;;;;;3.75;2.30;;;16.20;1.00;;;;;;7396497;19;20024;-60
2022/07/07 04:01:44;;;;;;;5.00;2.72;;;16.30;1.00;;;;;;7373417;19;20483;-60
2022/07/07 04:04:14;;;;;;;;;;;16.30;1.00;;;;;;7373659;19;20459;-60
2022/07/07 04:06:45;;;;;;;4.38;2.15;;;16.70;1.00;;;;;;7372906;19;19915;-60
2022/07/07 04:09:17;;;;;;;3.63;2.03;;;16.60;1.00;;;;;;7373222;19;20003;-60
2022/07/07 04:11:47;;;;;;;3.83;1.98;;;16.50;1.00;;;;;;7373500;19;20007;-60
2022/07/07 04:14:17;;;;;;;4.22;2.08;;;16.70;1.00;;;;;;7394851;19;20014;-60
2022/07/07 04:16:46;;;;;;;4.25;1.90;;;16.70;1.00;;;;;;7371437;19;20415;-60
2022/07/07 04:19:16;;;;;;;4.82;1.98;;;16.50;1.00;;;;;;7373150;19;20018;-60
2022/07/07 04:21:46;;;;;;;6.18;2.30;;;16.60;1.00;;;;;;7372843;19;20006;-60
2022/07/07 04:24:19;;;;;;;2.33;1.83;;;16.60;1.00;;;;;;7372669;19;20403;-60
2022/07/07 04:26:49;;;;;;;9.02;2.00;;;16.60;1.00;;;;;;7369588;19;20368;-60
2022/07/07 04:29:19;;;;;;;3.40;1.52;;;16.50;1.00;;;;;;7395371;19;20094;-60
2022/07/07 04:31:55;;;;;;;5.40;1.77;;;16.50;1.00;;;;;;7372562;19;20014;-60
2022/07/07 04:34:25;;;;;;;5.40;1.90;;;18.10;1.00;;;;;;7371763;19;20017;-60
2022/07/07 04:36:55;;;;;;;3.25;1.70;;;19.90;1.00;;;;;;7371860;19;20018;-60
2022/07/07 04:39:27;;;;;;;3.03;1.55;;;20.80;1.00;;;;;;7372556;19;21484;-60
2022/07/07 04:41:57;;;;;;;5.72;1.88;;;19.10;1.00;;;;;;7371978;19;20015;-60
2022/07/07 04:44:27;;;;;;;5.97;1.70;;;17.60;1.00;;;;;;7393709;19;20026;-60
2022/07/07 04:46:57;;;;;;;5.72;1.70;;;17.10;1.00;;;;;;7370406;19;20018;-60
2022/07/07 04:49:27;;;;;;;5.90;2.10;;;17.00;1.00;;;;;;7371014;19;20010;-60
2022/07/07 04:51:57;;;;;;;2.55;1.50;;;16.80;1.00;;;;;;7372223;19;20048;-60
2022/07/07 04:54:29;;;;;;;4.55;1.52;;;16.70;1.00;;;;;;7371698;19;20007;-60
2022/07/07 04:56:59;;;;;;;3.40;1.63;;;16.70;1.00;;;;;;7370734;19;20010;-60
2022/07/07 04:59:29;;;;;;;4.18;1.95;;;16.70;1.00;;;;;;7393041;19;20097;-63
2022/07/07 05:01:59;;;;;;;4.20;1.90;;;16.70;1.00;;;;;;7394074;19;20548;-60
2022/07/07 05:04:29;;;;;;;3.47;1.67;;;16.90;1.00;;;;;;7370218;19;20018;-60
2022/07/07 05:06:59;;;;;;;3.22;1.52;;;16.70;1.00;;;;;;7370523;19;20013;-60
2022/07/07 05:09:31;;;;;;;2.42;1.73;;;16.90;1.00;;;;;;7371849;19;20134;-60
2022/07/07 05:12:01;;;;;;;3.88;2.08;;;17.00;1.00;;;;;;7371844;19;20007;-60
2022/07/07 05:14:31;;;;;;;4.90;2.22;;;19.00;1.00;;;;;;7373207;19;20011;-61
2022/07/07 05:17:01;;;;;;;3.22;1.80;;;21.40;1.00;;;;;;7391266;19;20013;-60
2022/07/07 05:19:31;;;;;;;2.92;1.80;;;22.80;1.00;;;;;;7370580;19;20013;-61
2022/07/07 05:22:01;;;;;;;2.25;1.67;;;21.00;1.00;;;;;;7370853;19;20002;-60
2022/07/07 05:24:33;;;;;;;1.98;1.77;;;19.90;1.00;;;;;;7368403;19;20081;-60
2022/07/07 05:27:04;;;;;;;3.75;1.73;;;20.00;1.00;;;;;;7368839;19;20023;-60
2022/07/07 05:29:34;;;;;;;4.78;1.70;;;21.60;1.00;;;;;;7370944;19;20073;-61
2022/07/07 05:32:03;;;;;;;4.45;1.42;;;22.60;1.00;;;;;;7392321;19;20011;-60
2022/07/07 05:34:33;;;;;;;2.55;1.60;;;23.30;1.00;;;;;;7369017;19;20007;-60
2022/07/07 05:37:03;;;;;;;2.83;1.20;;;22.90;1.00;;;;;;7368746;19;20085;-60
2022/07/07 05:39:35;;;;;;;4.50;1.45;;;23.40;1.00;;;;;;7367642;19;20013;-59
2022/07/07 05:42:06;;;;;;;6.45;1.70;;;22.20;1.00;;;;;;7369224;19;20014;-60
2022/07/07 05:44:36;;;;;;;5.03;1.50;;;22.00;1.00;;;;;;7367636;19;20006;-60
2022/07/07 05:47:06;;;;;;;2.80;1.50;;;20.30;1.00;;;;;;7388955;19;20462;-60
2022/07/07 05:49:36;;;;;;;3.20;1.42;;;20.90;1.00;;;;;;7369610;19;20007;-60
2022/07/07 05:52:07;;;;;;;5.38;1.55;;;22.90;1.00;;;;;;7368912;19;20006;-60
2022/07/07 05:54:39;;;;;;;4.72;1.50;;;24.40;1.00;;;;;;7367833;19;20021;-60
2022/07/07 05:57:09;;;;;;;4.10;1.45;;;25.00;1.00;;;;;;7368095;19;20031;-60
2022/07/07 05:59:39;;;;;;;2.65;1.52;;;23.20;1.00;;;;;;7368944;19;20115;-60
2022/07/07 06:02:09;;;;;;;1.85;1.27;;;22.40;1.00;;;;;;7391323;19;20093;-60
2022/07/07 06:04:39;;;;;;;4.28;1.75;;;22.90;1.00;;;;;;7368103;19;20037;-59
2022/07/07 06:07:09;;;;;;;2.30;1.52;;;20.50;1.00;;;;;;7367101;19;20406;-60
2022/07/07 06:09:42;;;;;;;5.05;1.40;;;19.90;1.00;;;;;;7368832;19;20084;-59
2022/07/07 06:12:14;;;;;;;4.20;1.45;;;21.00;1.00;;;;;;7369601;19;20072;-60
2022/07/07 06:14:44;;;;;;;5.85;1.20;;;21.20;1.00;;;;;;7366309;19;20022;-60
2022/07/07 06:17:13;;;;;;;4.50;1.20;;;21.20;1.00;;;;;;7388996;19;20529;-60
2022/07/07 06:19:43;;;;;;;4.38;1.38;;;21.20;1.00;;;;;;7368651;19;20002;-60
2022/07/07 06:22:14;;;;;;;6.00;1.42;;;21.70;1.00;;;;;;7368105;19;20007;-61
2022/07/07 06:24:46;;;;;;;3.40;1.50;;;21.70;1.00;;;;;;7366751;19;20113;-60
2022/07/07 06:27:16;;;;;;;4.63;1.40;;;21.30;1.00;;;;;;7367116;19;20070;-60
2022/07/07 06:29:46;;;;;;;4.32;1.20;;;21.10;1.00;;;;;;7368229;19;20024;-61
2022/07/07 06:32:16;;;;;;;2.08;1.25;;;21.50;1.00;;;;;;7390586;19;20002;-60
2022/07/07 06:34:46;;;;;;;3.58;1.40;;;21.30;1.00;;;;;;7365639;19;20094;-60
2022/07/07 06:37:16;;;;;;;2.67;1.50;;;20.60;1.00;;;;;;7367195;19;20007;-60
2022/07/07 06:39:49;;;;;;;3.88;1.13;;;20.40;1.00;;;;;;7368478;19;20021;-59
2022/07/07 06:42:20;;;;;;;4.63;1.45;;;20.00;1.00;;;;;;7367497;19;20007;-59
2022/07/07 06:44:49;;;;;;;2.78;1.20;;;20.30;1.00;;;;;;7367874;19;20107;-58
2022/07/07 06:47:19;;;;;;;3.45;1.55;;;20.40;1.00;;;;;;7387965;19;20010;-60
2022/07/07 06:49:49;;;;;;;3.42;1.42;;;20.30;1.00;;;;;;7368382;19;20045;-59
2022/07/07 06:52:19;;;;;;;4.32;1.42;;;20.90;1.00;;;;;;7374617;19;20011;-59
2022/07/07 06:54:52;;;;;;;2.72;1.30;;;21.10;1.00;;;;;;7374313;19;20018;-59
2022/07/07 06:57:21;;;;;;;4.75;1.77;;;21.00;1.00;;;;;;7372959;19;20025;-59
2022/07/07 06:59:51;;;;;;;3.47;1.60;;;20.70;1.00;;;;;;7375191;19;20347;-59
2022/07/07 07:02:21;;;;;;;2.53;1.38;;;20.70;1.00;;;;;;7396869;19;20010;-59
2022/07/07 07:04:51;;;;;;;4.07;2.00;;;20.00;1.00;;;;;;7373191;19;20018;-59
2022/07/07 07:07:22;;;;;;;4.05;1.60;;;20.10;1.00;;;;;;7373476;19;20079;-59
2022/07/07 07:09:54;;;;;;;4.63;1.92;;;20.30;1.00;;;;;;7373926;19;20027;-59
2022/07/07 07:12:24;;;;;;;9.80;1.60;;;20.10;1.00;;;;;;7374447;19;20026;-59
2022/07/07 07:14:54;;;;;;;3.90;1.40;;;20.00;1.00;;;;;;7372441;19;20014;-59
2022/07/07 07:17:24;;;;;;;5.32;1.45;;;20.30;1.00;;;;;;7393704;19;20070;-60
2022/07/07 07:19:55;;;;;;;5.72;1.38;;;20.40;1.00;;;;;;7373984;19;20019;-60
2022/07/07 07:22:25;;;;;;;6.25;1.70;;;20.50;1.00;;;;;;7374494;19;20010;-59
2022/07/07 07:24:58;;;;;;;4.40;1.55;;;20.30;1.00;;;;;;7371837;19;20014;-59
2022/07/07 07:27:28;;;;;;;8.93;2.05;;;20.10;1.00;;;;;;7372155;19;20010;-60
2022/07/07 07:29:58;;;;;;;5.25;1.60;;;19.40;1.00;;;;;;7372914;19;20015;-60
2022/07/07 07:32:33;;;;;;;4.15;1.60;;;19.80;1.00;;;;;;7370918;19;20531;-59
2022/07/07 07:35:02;;;;;;;7.50;2.17;;;19.70;1.00;;;;;;7393062;19;20501;-59
2022/07/07 07:37:32;;;;;;;5.32;1.52;;;19.60;1.00;;;;;;7370124;19;20010;-59
2022/07/07 07:40:06;;;;;;;3.35;1.80;;;19.60;1.00;;;;;;7372193;19;20011;-59
2022/07/07 07:42:35;;;;;;;5.70;1.80;;;19.30;1.00;;;;;;7373035;19;20077;-59
2022/07/07 07:45:13;;;;;;;2.47;1.52;;;19.30;1.00;;;;;;7373031;19;20013;-60
2022/07/07 07:47:45;;;;;;;4.40;1.98;;;19.50;1.00;;;;;;7372781;19;20501;-60
2022/07/07 07:50:17;;;;;;;4.53;1.50;;;19.60;1.00;;;;;;7394152;19;20118;-60
2022/07/07 07:52:48;;;;;;;3.33;1.90;;;19.60;1.00;;;;;;7368166;19;20094;-60
2022/07/07 07:55:26;;;;;;;4.50;1.65;;;19.60;1.00;;;;;;7368429;19;20011;-61
2022/07/07 07:57:59;;;;;;;3.67;2.13;;;19.40;1.00;;;;;;7370814;19;20018;-59
2022/07/07 08:00:28;;;;;;;4.68;1.90;;;19.70;1.00;;;;;;7370356;19;20007;-59
2022/07/07 08:03:06;;;;;;;7.57;1.90;;;19.80;1.00;;;;;;7369463;19;20014;-59
2022/07/07 08:05:35;;;;;;;9.57;1.98;;;20.10;1.00;;;;;;7371727;19;20035;-60
2022/07/07 08:08:06;;;;;;;5.47;1.85;;;20.30;1.00;;;;;;7393775;19;20449;-59
2022/07/07 08:10:38;;;;;;;2.35;1.38;;;20.40;1.00;;;;;;7369354;19;20473;-59
2022/07/07 08:13:10;;;;;;;3.45;1.83;;;20.80;1.00;;;;;;7370874;19;20003;-61
2022/07/07 08:15:40;;;;;;;8.07;2.10;;;20.70;1.00;;;;;;7369161;19;20020;-60
2022/07/07 08:18:10;;;;;;;9.50;1.70;;;20.70;1.00;;;;;;7371215;19;20002;-60
2022/07/07 08:20:41;;;;;;;4.57;1.90;;;20.40;1.00;;;;;;7368492;19;20078;-60
2022/07/07 08:23:10;;;;;;;7.57;1.67;;;20.60;1.00;;;;;;7392458;19;20014;-60
2022/07/07 08:25:43;;;;;;;7.32;1.80;;;20.50;1.00;;;;;;7368938;19;20029;-60
2022/07/07 08:28:13;;;;;;;4.72;1.92;;;20.10;1.00;;;;;;7370614;19;20007;-60
2022/07/07 08:30:43;;;;;;;3.95;2.15;;;20.50;1.00;;;;;;7371523;19;20378;-59
2022/07/07 08:33:13;;;;;;;4.68;2.00;;;20.30;1.00;;;;;;7369526;19;20522;-59
2022/07/07 08:35:43;;;;;;;7.85;2.53;;;20.50;1.00;;;;;;7368274;19;20459;-60
2022/07/07 08:38:12;;;;;;;5.50;2.47;;;21.20;1.00;;;;;;7392932;19;20014;-59
2022/07/07 08:40:45;;;;;;;4.03;2.67;;;21.10;1.00;;;;;;7369713;19;20017;-62
2022/07/07 08:43:15;;;;;;;6.00;3.10;;;20.80;1.00;;;;;;7370525;19;20084;-60
2022/07/07 08:45:47;;;;;;;7.70;2.85;;;20.90;1.00;;;;;;7369483;19;20058;-59
2022/07/07 08:48:17;;;;;;;5.72;2.78;;;20.80;1.00;;;;;;7370865;19;20031;-60
2022/07/07 08:50:47;;;;;;;6.72;2.75;;;20.70;1.00;;;;;;7371925;19;20010;-59
2022/07/07 08:53:18;;;;;;;3.47;2.30;;;21.40;1.00;;;;;;7393609;19;20029;-59
2022/07/07 08:55:53;;;;;;;3.55;2.28;;;21.00;1.00;;;;;;7369951;19;20081;-60
2022/07/07 08:58:22;;;;;;;;;;;21.40;1.00;;;;;;7371327;19;20010;-61
2022/07/07 09:01:12;;;;;;;5.85;2.35;;;21.40;1.00;;;;;;7371094;19;19940;-59
2022/07/07 09:03:42;;;;;;;6.82;3.22;;;21.00;1.00;;;;;;7369287;19;20025;-60
2022/07/07 09:06:14;;;;;;;6.38;3.22;;;20.80;1.00;;;;;;7371279;19;20030;-59
2022/07/07 09:08:52;;;;;;;7.60;3.40;;;20.50;1.00;;;;;;7371645;19;20006;-59
2022/07/07 09:11:36;;;;;;;8.13;3.50;;;20.20;1.00;;;;;;7393934;19;20006;-60
2022/07/07 09:14:14;;;;;;;9.50;3.45;;;20.00;1.00;;;;;;7368270;19;20011;-59
2022/07/07 09:16:45;;;;;;;9.77;3.15;;;19.90;1.00;;;;;;7368202;19;20015;-59
2022/07/07 09:19:20;;;;;;;6.80;3.88;;;19.80;1.00;;;;;;7370434;19;20086;-59
2022/07/07 09:21:51;;;;;;;6.93;3.53;;;19.50;1.00;;;;;;7370612;19;20014;-59
2022/07/07 09:24:22;;;;;;;6.80;3.30;;;19.60;1.00;;;;;;7370946;19;20825;-59
2022/07/07 09:26:56;;;;;;;7.85;2.58;;;19.70;1.00;;;;;;7368617;19;20015;-59
2022/07/07 09:29:27;;;;;;;3.33;2.50;;;19.80;1.00;;;;;;7388415;19;20014;-59
2022/07/07 09:32:00;;;;;;;5.97;3.17;;;19.70;1.00;;;;;;7365743;19;20386;-59
2022/07/07 09:34:32;;;;;;;4.95;2.95;;;19.70;1.00;;;;;;7370218;19;20011;-60
2022/07/07 09:39:48;;;;;;;5.40;2.40;;;19.40;1.00;;;;;;7370804;19;20077;-59
2022/07/07 09:42:39;;;;;;;6.28;2.55;;;19.60;1.00;;;;;;7369728;19;20010;-59
2022/07/07 09:45:12;;;;;;;4.32;2.50;;;19.50;1.00;;;;;;7369898;19;20013;-59
2022/07/07 09:47:42;;;;;;;5.05;2.30;;;19.30;1.00;;;;;;7368494;19;20482;-59
2022/07/07 09:50:14;;;;;;;6.65;2.70;;;19.10;1.00;;;;;;7392097;19;20010;-59
2022/07/07 09:52:47;;;;;;;3.05;1.85;;;19.30;1.00;;;;;;7369466;19;20067;-59
2022/07/07 09:55:17;;;;;;;6.05;2.20;;;19.30;1.00;;;;;;7369154;19;20328;-60
2022/07/07 09:57:50;;;;;;;5.28;1.73;;;19.20;1.00;;;;;;7368943;19;20085;-59
2022/07/07 10:00:20;;;;;;;4.50;2.20;;;19.30;1.00;;;;;;7370808;19;20111;-59
2022/07/07 10:02:51;;;;;;;3.60;1.75;;;19.60;1.00;;;;;;7369366;19;20087;-58
2022/07/07 10:05:22;;;;;;;5.80;2.05;;;19.50;1.00;;;;;;7391007;19;20082;-58
2022/07/07 10:07:58;;;;;;;2.65;1.90;;;19.90;1.00;;;;;;7368223;19;20014;-60
2022/07/07 10:10:28;;;;;;;4.20;1.85;;;20.70;1.00;;;;;;7368775;19;20029;-60
2022/07/07 10:13:02;;;;;;;4.28;2.00;;;20.70;1.00;;;;;;7370385;19;20011;-60
2022/07/07 10:15:32;;;;;;;3.83;2.00;;;20.30;1.00;;;;;;7368649;19;20031;-60
2022/07/07 10:18:05;;;;;;;3.08;2.08;;;20.90;1.00;;;;;;7368719;19;20441;-60
2022/07/07 10:20:35;;;;;;;3.45;2.20;;;21.30;1.00;;;;;;7369297;19;20010;-61
2022/07/07 10:23:05;;;;;;;2.55;1.77;;;21.20;1.00;;;;;;7390673;19;20042;-59
2022/07/07 10:25:35;;;;;;;4.43;2.47;;;21.10;1.00;;;;;;7366353;19;20014;-60
2022/07/07 10:28:08;;;;;;;2.88;1.88;;;21.50;1.00;;;;;;7367771;19;20014;-59
2022/07/07 10:30:38;;;;;;;9.80;3.15;;;21.50;1.00;;;;;;7369046;19;20470;-60
2022/07/07 10:33:08;;;;;;;3.88;1.95;;;21.30;1.00;;;;;;7368996;19;20017;-59
2022/07/07 10:35:45;;;;;;;5.43;2.28;;;21.00;1.00;;;;;;7367495;19;20375;-60
2022/07/07 10:38:19;;;;;;;2.67;1.90;;;20.70;1.00;;;;;;7390908;19;20003;-60
2022/07/07 10:40:55;;;;;;;3.92;1.90;;;20.90;1.00;;;;;;7368677;19;20081;-59
2022/07/07 10:43:33;;;;;;;2.97;1.67;;;20.90;1.00;;;;;;7367308;19;20010;-59
2022/07/07 10:46:11;;;;;;;3.92;1.80;;;20.60;1.00;;;;;;7364908;19;20022;-60
2022/07/07 10:48:46;;;;;;;4.63;1.85;;;20.10;1.00;;;;;;7365009;19;20010;-60
2022/07/07 10:51:21;;;;;;;3.33;1.90;;;20.30;1.00;;;;;;7368008;19;20084;-59
2022/07/07 10:54:03;;;;;;;2.40;1.60;;;20.00;1.00;;;;;;7355201;19;20010;-59
2022/07/07 10:57:05;;;;;;;2.25;1.73;;;20.00;1.00;;;;;;7363249;19;20090;-60
2022/07/07 11:00:07;;;;;;;3.05;1.90;;;19.90;1.00;;;;;;7365788;19;20070;-59
2022/07/07 11:02:38;;;;;;;3.80;1.67;;;20.20;1.00;;;;;;7359737;19;20018;-59
2022/07/07 11:05:42;;;;;;;3.95;1.90;;;20.30;1.00;;;;;;7386450;19;20010;-60
2022/07/07 11:08:15;;;;;;;4.18;1.80;;;20.30;1.00;;;;;;7363260;19;20459;-60
2022/07/07 11:10:57;;;;;;;2.80;1.75;;;20.10;1.00;;;;;;7363613;19;20466;-58
2022/07/07 11:13:37;;;;;;;5.05;2.03;;;20.30;1.00;;;;;;7359836;19;20052;-59
2022/07/07 11:16:23;;;;;;;5.43;2.83;;;20.40;1.00;;;;;;7361807;19;20019;-58
2022/07/07 11:19:00;;;;;;;2.17;1.88;;;20.00;1.00;;;;;;7362931;19;20006;-58
2022/07/07 11:21:38;;;;;;;4.60;2.13;;;20.20;1.00;;;;;;7364848;19;20013;-59
2022/07/07 11:24:18;;;;;;;3.17;2.00;;;20.00;1.00;;;;;;7356130;19;20011;-60
2022/07/07 11:26:59;;;;;;;3.55;2.00;;;19.90;1.00;;;;;;7362331;19;20029;-59
2022/07/07 11:29:29;;;;;;;3.85;2.20;;;19.90;1.00;;;;;;7385347;19;20014;-60
2022/07/07 11:32:11;;;;;;;4.63;2.10;;;19.60;1.00;;;;;;7357282;19;20529;-59
2022/07/07 11:34:49;;;;;;;5.28;2.40;;;19.70;1.00;;;;;;7360832;19;20011;-60
2022/07/07 11:37:24;;;;;;;4.82;2.45;;;20.00;1.00;;;;;;7360883;19;20019;-61
2022/07/07 11:39:55;;;;;;;2.78;1.73;;;20.20;1.00;;;;;;7369951;19;20036;-59
2022/07/07 11:42:25;;;;;;;4.40;2.40;;;20.30;1.00;;;;;;7364906;19;20134;-59
2022/07/07 11:44:55;;;;;;;3.90;2.63;;;20.60;1.00;;;;;;7368479;19;20091;-59
2022/07/07 11:47:28;;;;;;;3.50;2.22;;;20.10;1.00;;;;;;7389902;19;20021;-60
2022/07/07 11:49:58;;;;;;;4.32;1.70;;;20.30;1.00;;;;;;7369281;19;20491;-60
2022/07/07 11:52:28;;;;;;;7.10;2.60;;;20.20;1.00;;;;;;7358903;19;20010;-59
2022/07/07 11:54:58;;;;;;;3.92;1.80;;;20.40;1.00;;;;;;7365509;19;20073;-59
2022/07/07 11:57:29;;;;;;;6.78;2.10;;;20.30;1.00;;;;;;7364519;19;20006;-59
2022/07/07 12:00:14;;;;;;;5.57;3.20;;;20.50;1.00;;;;;;7369119;19;20039;-60
2022/07/07 12:02:49;;;;;;;5.93;2.10;;;20.40;1.00;;;;;;7363908;19;20018;-60
2022/07/07 12:05:20;;;;;;;4.93;2.35;;;20.40;1.00;;;;;;7392022;19;20471;-60
2022/07/07 12:07:55;;;;;;;4.25;2.17;;;20.40;1.00;;;;;;7369215;19;20027;-59
2022/07/07 12:10:27;;;;;;;3.95;2.17;;;20.70;1.00;;;;;;7368964;19;20066;-59
2022/07/07 12:13:02;;;;;;;4.47;2.55;;;20.60;1.00;;;;;;7363982;19;20010;-60
2022/07/07 12:15:34;;;;;;;3.75;2.50;;;20.70;1.00;;;;;;7369319;19;20102;-59
2022/07/07 12:18:08;;;;;;;4.72;2.50;;;20.60;1.00;;;;;;7366744;19;20171;-60
2022/07/07 12:20:40;;;;;;;5.75;2.33;;;20.70;1.00;;;;;;7367194;19;20022;-61
2022/07/07 12:23:10;;;;;;;4.88;2.42;;;20.90;1.00;;;;;;7384736;19;20011;-60
2022/07/07 12:25:40;;;;;;;3.00;2.30;;;21.20;1.00;;;;;;7369381;19;20487;-60
2022/07/07 12:28:19;;;;;;;3.10;2.60;;;21.10;1.00;;;;;;7369335;19;20482;-60
2022/07/07 12:30:54;;;;;;;6.43;2.20;;;20.60;1.00;;;;;;7369603;19;20018;-59
2022/07/07 12:33:33;;;;;;;7.03;2.58;;;20.60;1.00;;;;;;7362411;19;20062;-60
2022/07/07 12:36:10;;;;;;;6.75;2.75;;;20.90;1.00;;;;;;7367062;19;20074;-59
2022/07/07 12:38:42;;;;;;;8.32;2.55;;;20.70;1.00;;;;;;7367813;19;20017;-59
2022/07/07 12:41:24;;;;;;;7.05;2.60;;;20.80;1.00;;;;;;7391533;19;20014;-60
2022/07/07 12:43:55;;;;;;;8.15;3.03;;;20.90;1.00;;;;;;7360829;19;20018;-60
2022/07/07 12:46:35;;;;;;;3.03;2.15;;;21.20;1.00;;;;;;7366087;19;20094;-60
2022/07/07 12:49:09;;;;;;;3.70;2.42;;;20.70;1.00;;;;;;7367446;19;20039;-60
2022/07/07 12:51:41;;;;;;;5.57;2.53;;;21.00;1.00;;;;;;7369112;19;20015;-59
2022/07/07 12:54:22;;;;;;;5.18;2.38;;;20.90;1.00;;;;;;7362583;19;20086;-59
2022/07/07 12:57:02;;;;;;;4.05;2.88;;;20.40;1.00;;;;;;7365584;19;20095;-60
2022/07/07 12:59:38;;;;;;;5.55;2.17;;;20.20;1.00;;;;;;7368021;19;20031;-60
2022/07/07 13:02:10;;;;;;;5.47;2.75;;;20.40;1.00;;;;;;7385521;19;20411;-60
2022/07/07 13:04:43;;;;;;;3.47;2.53;;;20.40;1.00;;;;;;7367175;19;20043;-59
2022/07/07 13:07:14;;;;;;;5.43;2.35;;;20.10;1.00;;;;;;7367143;19;20018;-60
2022/07/07 13:09:43;;;;;;;6.47;2.50;;;20.50;1.00;;;;;;7367749;19;20011;-61
2022/07/07 13:12:15;;;;;;;6.55;2.38;;;20.20;1.00;;;;;;7362985;19;20018;-59
2022/07/07 13:14:47;;;;;;;3.80;2.67;;;20.10;1.00;;;;;;7365133;19;20111;-59
2022/07/07 13:17:17;;;;;;;8.18;3.40;;;20.00;1.00;;;;;;7385423;19;20013;-61
2022/07/07 13:19:50;;;;;;;6.88;2.50;;;20.10;1.00;;;;;;7366645;19;20094;-60
2022/07/07 13:22:20;;;;;;;7.57;2.55;;;20.00;1.00;;;;;;7357978;19;20584;-59
2022/07/07 13:24:55;;;;;;;4.22;2.53;;;19.80;1.00;;;;;;7362871;19;20428;-59